Time;durP1;ratioP1;P1;durP2;ratioP2;P2;SDS_P1;SDS_P2;PMS_P1;PMS_P2;Temp;Humidity;BMP_temperature;BMP_pressure;BME280_temperature;BME280_humidity;BME280_pressure;Samples;Min_cycle;Max_cycle;Signal;HPM_P1;HPM_P2
2022/12/21 00:01:31;;;;;;;71.80;28.60;;;;;;;8.51;100.00;100958.03;4992250;28;20026;-86
2022/12/21 00:03:59;;;;;;;69.10;31.50;;;;;;;8.44;100.00;100941.94;4977895;28;20052;-85
2022/12/21 00:06:27;;;;;;;84.18;29.77;;;;;;;8.49;100.00;100958.38;4998955;28;20033;-86
2022/12/21 00:08:55;;;;;;;72.07;29.10;;;;;;;8.59;100.00;100962.59;4981687;28;20954;-86
2022/12/21 00:11:22;;;;;;;74.88;32.85;;;;;;;8.45;100.00;100967.84;4983525;28;20073;-86
2022/12/21 00:13:49;;;;;;;68.85;30.05;;;;;;;8.47;100.00;100963.50;4977671;28;20076;-86
2022/12/21 00:16:17;;;;;;;81.55;30.60;;;;;;;8.41;100.00;100967.75;4981192;28;20474;-85
2022/12/21 00:18:43;;;;;;;71.15;26.83;;;;;;;8.44;100.00;100949.50;4996009;28;20026;-86
2022/12/21 00:21:14;;;;;;;86.60;33.50;;;;;;;8.37;100.00;100949.28;4981463;28;20540;-85
2022/12/21 00:23:45;;;;;;;64.68;28.00;;;;;;;8.44;100.00;100941.94;4980018;28;21779;-85
2022/12/21 00:26:13;;;;;;;64.63;27.10;;;;;;;8.59;100.00;100956.22;4986162;28;20056;-86
2022/12/21 00:28:39;;;;;;;72.00;28.52;;;;;;;8.63;100.00;100945.94;4985407;28;20405;-86
2022/12/21 00:31:16;;;;;;;72.82;28.45;;;;;;;8.51;100.00;100942.09;4978256;28;21535;-86
2022/12/21 00:33:44;;;;;;;74.40;28.48;;;;;;;8.43;100.00;100957.06;4973789;28;20397;-85
2022/12/21 00:36:11;;;;;;;65.60;29.48;;;;;;;8.53;100.00;100959.28;4976942;28;20034;-86
2022/12/21 00:38:37;;;;;;;66.53;29.17;;;;;;;8.45;100.00;100962.25;4984155;28;20047;-86
2022/12/21 00:41:05;;;;;;;66.18;29.02;;;;;;;8.52;100.00;100968.03;4978331;28;20177;-85
2022/12/21 00:43:33;;;;;;;69.22;27.38;;;;;;;8.44;100.00;100969.81;4992659;28;20510;-85
2022/12/21 00:45:59;;;;;;;68.80;26.55;;;;;;;8.32;100.00;100951.16;4977873;28;20030;-86
2022/12/21 00:48:26;;;;;;;67.53;28.92;;;;;;;8.38;100.00;100962.88;4984925;28;20037;-85
2022/12/21 00:50:51;;;;;;;72.75;30.02;;;;;;;8.38;100.00;100973.22;4978333;28;20034;-86
2022/12/21 00:53:17;;;;;;;90.68;32.67;;;;;;;8.35;100.00;100983.94;4973642;28;20034;-85
2022/12/21 00:55:57;;;;;;;75.53;28.42;;;;;;;8.43;100.00;100982.16;4977505;28;20054;-85
2022/12/21 00:58:24;;;;;;;65.93;27.25;;;;;;;8.37;100.00;100982.75;4993966;28;20398;-86
2022/12/21 01:00:51;;;;;;;62.13;26.13;;;;;;;8.38;100.00;100974.03;4973348;28;20179;-85
2022/12/21 01:03:17;;;;;;;67.78;29.42;;;;;;;8.34;100.00;100981.47;4982659;28;20410;-85
2022/12/21 01:05:46;;;;;;;68.57;29.65;;;;;;;8.35;100.00;100972.78;4984187;28;20033;-85
2022/12/21 01:08:11;;;;;;;76.15;28.98;;;;;;;8.19;100.00;100983.09;4985770;28;20026;-84
2022/12/21 01:10:36;;;;;;;70.18;28.15;;;;;;;8.23;100.00;100991.56;4977420;28;20493;-85
2022/12/21 01:13:02;;;;;;;59.42;24.75;;;;;;;8.34;100.00;100979.50;4978586;28;20398;-85
2022/12/21 01:15:27;;;;;;;61.22;25.05;;;;;;;8.33;100.00;100994.63;4994099;28;20486;-85
2022/12/21 01:17:53;;;;;;;63.97;25.02;;;;;;;8.34;100.00;100996.22;4996812;28;20034;-85
2022/12/21 01:20:18;;;;;;;81.13;28.88;;;;;;;8.28;100.00;100991.28;4978637;28;20034;-85
2022/12/21 01:22:43;;;;;;;71.03;26.55;;;;;;;8.11;100.00;100987.69;4981361;28;20034;-85
2022/12/21 01:25:09;;;;;;;80.43;28.92;;;;;;;7.92;100.00;100990.34;4982478;28;20026;-86
2022/12/21 01:27:35;;;;;;;70.10;27.40;;;;;;;7.97;100.00;100986.50;4977366;28;20088;-85
2022/12/21 01:30:00;;;;;;;69.20;28.20;;;;;;;8.17;100.00;101006.94;4978343;28;20029;-86
2022/12/21 01:32:25;;;;;;;75.60;30.67;;;;;;;8.14;100.00;100986.19;4975258;28;20446;-85
2022/12/21 01:34:51;;;;;;;71.60;27.15;;;;;;;8.23;100.00;100995.16;4979487;28;20176;-85
2022/12/21 01:37:16;;;;;;;64.38;29.10;;;;;;;8.04;100.00;100983.91;4973068;28;20081;-85
2022/12/21 01:39:41;;;;;;;70.85;30.27;;;;;;;8.13;100.00;100995.69;4971341;28;20061;-85
2022/12/21 01:42:11;;;;;;;62.35;26.48;;;;;;;8.13;100.00;100978.97;4974784;28;20087;-85
2022/12/21 01:45:07;;;;;;;61.88;27.95;;;;;;;8.06;100.00;100989.94;4977459;28;20156;-85
2022/12/21 01:47:40;;;;;;;66.63;26.80;;;;;;;8.07;100.00;100985.97;4978865;28;20109;-85
2022/12/21 01:50:24;;;;;;;57.80;25.25;;;;;;;8.24;100.00;100991.22;4977924;28;20030;-86
2022/12/21 01:52:51;;;;;;;58.50;24.30;;;;;;;8.20;100.00;100995.91;4987969;28;20030;-85
2022/12/21 01:55:16;;;;;;;55.28;23.05;;;;;;;8.18;100.00;100992.66;4975247;28;20037;-85
2022/12/21 01:57:42;;;;;;;62.28;25.45;;;;;;;8.13;100.00;100990.91;4979360;28;20030;-85
2022/12/21 02:00:11;;;;;;;59.70;25.90;;;;;;;8.06;100.00;100995.50;4981637;28;20129;-85
2022/12/21 02:02:44;;;;;;;56.20;23.00;;;;;;;8.07;100.00;100991.53;4986472;28;20437;-85
2022/12/21 02:05:46;;;;;;;60.80;24.27;;;;;;;8.10;100.00;100991.66;4984713;28;20458;-85
2022/12/21 02:08:12;;;;;;;57.83;24.88;;;;;;;7.91;100.00;100983.19;4962078;28;20041;-85
2022/12/21 02:10:38;;;;;;;60.08;26.23;;;;;;;8.11;100.00;100998.03;4985900;28;20042;-85
2022/12/21 02:13:06;;;;;;;55.53;23.27;;;;;;;8.14;100.00;100997.31;4985953;28;20031;-85
2022/12/21 02:15:53;;;;;;;51.80;22.73;;;;;;;8.07;100.00;100999.91;4980286;28;20038;-85
2022/12/21 02:18:40;;;;;;;58.40;26.98;;;;;;;8.09;100.00;100995.59;4988288;28;20430;-85
2022/12/21 02:21:21;;;;;;;55.15;23.40;;;;;;;8.06;100.00;100987.16;4987918;28;20583;-85
2022/12/21 02:24:06;;;;;;;50.25;22.48;;;;;;;8.08;100.00;100995.97;4996688;28;20030;-85
2022/12/21 02:26:50;;;;;;;51.78;22.63;;;;;;;8.05;100.00;101000.28;4999858;28;20655;-85
2022/12/21 02:29:18;;;;;;;47.53;20.90;;;;;;;8.05;100.00;100999.44;5001404;28;20023;-85
2022/12/21 02:32:16;;;;;;;52.28;22.52;;;;;;;8.02;100.00;100989.03;4999637;28;20193;-85
2022/12/21 02:34:49;;;;;;;47.25;20.83;;;;;;;8.05;100.00;100991.09;4995498;28;20516;-85
2022/12/21 02:37:27;;;;;;;52.45;23.15;;;;;;;8.01;100.00;100987.41;4997275;28;20038;-86
2022/12/21 02:40:01;;;;;;;47.70;21.13;;;;;;;7.99;100.00;100989.72;4977911;28;20517;-85
2022/12/21 02:45:37;;;;;;;44.28;19.85;;;;;;;7.94;100.00;100980.47;4977888;28;20619;-85
2022/12/21 02:48:38;;;;;;;43.17;19.40;;;;;;;7.91;100.00;100974.81;4981512;28;20031;-85
2022/12/21 02:51:08;;;;;;;48.58;19.80;;;;;;;7.92;100.00;100977.22;4960054;28;20078;-85
2022/12/21 02:53:36;;;;;;;39.13;19.10;;;;;;;7.87;100.00;100966.34;4998318;28;20069;-85
2022/12/21 02:56:01;;;;;;;43.42;20.73;;;;;;;7.91;100.00;100972.84;4982890;28;20026;-85
2022/12/21 02:58:27;;;;;;;47.33;20.92;;;;;;;7.91;100.00;100972.03;4981206;28;20083;-85
2022/12/21 03:00:52;;;;;;;40.38;19.88;;;;;;;7.91;100.00;100977.59;4987278;28;20569;-85
2022/12/21 03:03:56;;;;;;;43.28;18.88;;;;;;;7.86;100.00;100989.00;4978890;28;20050;-85
2022/12/21 03:06:37;;;;;;;43.00;19.27;;;;;;;7.88;100.00;100984.69;4986393;28;20034;-85
2022/12/21 03:09:44;;;;;;;46.33;19.15;;;;;;;7.82;100.00;100977.78;4999776;28;20494;-85
2022/12/21 03:12:15;;;;;;;43.13;18.85;;;;;;;7.85;100.00;100974.25;4956783;28;20395;-85
2022/12/21 03:14:40;;;;;;;51.08;21.08;;;;;;;7.79;100.00;100970.09;4980294;28;20483;-85
2022/12/21 03:17:35;;;;;;;39.00;20.17;;;;;;;7.84;100.00;100971.81;5004109;28;20085;-85
2022/12/21 03:20:24;;;;;;;42.95;17.85;;;;;;;7.82;100.00;100969.41;5000494;28;20028;-85
2022/12/21 03:22:58;;;;;;;54.05;19.05;;;;;;;7.79;100.00;100961.75;5002152;28;20065;-85
2022/12/21 03:25:31;;;;;;;42.17;19.85;;;;;;;7.82;100.00;100968.59;4984493;28;20022;-85
2022/12/21 03:28:03;;;;;;;38.55;16.45;;;;;;;7.84;100.00;100966.25;4987010;28;20022;-85
2022/12/21 03:30:32;;;;;;;38.03;17.75;;;;;;;7.77;100.00;100958.50;4997500;28;20526;-85
2022/12/21 03:33:02;;;;;;;41.95;17.90;;;;;;;7.76;100.00;100959.69;4980580;28;20034;-85
2022/12/21 03:35:42;;;;;;;40.38;16.73;;;;;;;7.82;100.00;100965.78;4987286;28;20041;-85
2022/12/21 03:38:15;;;;;;;45.70;18.55;;;;;;;7.78;100.00;100957.34;4981580;28;20034;-85
2022/12/21 03:40:44;;;;;;;40.85;17.33;;;;;;;7.78;100.00;100949.00;4979753;28;20045;-85
2022/12/21 03:43:21;;;;;;;39.58;15.50;;;;;;;7.70;100.00;100945.19;4979792;28;20108;-85
2022/12/21 03:46:20;;;;;;;44.58;17.92;;;;;;;7.78;100.00;100957.34;4993814;28;20026;-85
2022/12/21 03:49:02;;;;;;;41.92;17.58;;;;;;;7.76;100.00;100950.50;4984358;28;20430;-85
2022/12/21 03:51:36;;;;;;;35.65;14.82;;;;;;;7.77;100.00;100955.72;4979686;28;20079;-85
2022/12/21 03:54:26;;;;;;;41.22;16.50;;;;;;;7.77;100.00;100958.50;4995669;28;20793;-85
2022/12/21 03:56:54;;;;;;;37.85;16.20;;;;;;;7.71;100.00;100946.00;4991772;28;20467;-85
2022/12/21 03:59:20;;;;;;;52.70;19.85;;;;;;;7.72;100.00;100944.84;4983450;28;20034;-85
2022/12/21 04:01:55;;;;;;;44.70;17.85;;;;;;;7.69;100.00;100939.97;4997292;28;20042;-85
2022/12/21 04:04:31;;;;;;;48.38;18.67;;;;;;;7.58;100.00;100928.53;4963367;28;20043;-85
2022/12/21 04:07:00;;;;;;;42.30;17.75;;;;;;;7.71;100.00;100943.22;4969838;28;20065;-85
2022/12/21 04:09:26;;;;;;;40.45;15.93;;;;;;;7.73;100.00;100936.13;4963265;28;20391;-84
2022/12/21 04:14:37;;;;;;;42.05;16.48;;;;;;;7.64;100.00;100940.25;4969830;28;20084;-84
2022/12/21 04:17:02;;;;;;;36.85;14.73;;;;;;;7.62;100.00;100931.44;4975648;28;20038;-85
2022/12/21 04:28:06;;;;;;;46.63;20.25;;;;;;;7.62;100.00;100962.09;4962841;28;20137;-85
2022/12/21 04:30:25;;;;;;;42.50;16.92;;;;;;;7.58;100.00;100948.03;4960662;28;20893;-85
2022/12/21 04:32:50;;;;;;;36.05;16.60;;;;;;;7.65;100.00;100944.63;4959338;28;20035;-85
2022/12/21 04:35:15;;;;;;;51.58;21.23;;;;;;;7.65;100.00;100933.50;4963007;28;20118;-85
2022/12/21 04:37:41;;;;;;;54.25;20.15;;;;;;;7.51;100.00;100936.72;4977067;28;20486;-85
2022/12/21 04:40:07;;;;;;;59.90;22.77;;;;;;;7.41;100.00;100938.03;4978708;28;20026;-85
2022/12/21 04:42:33;;;;;;;53.35;18.20;;;;;;;7.53;100.00;100929.63;4960449;28;20042;-85
2022/12/21 04:44:58;;;;;;;53.63;21.08;;;;;;;7.52;100.00;100936.34;4964615;28;20482;-85
2022/12/21 04:47:24;;;;;;;49.05;18.70;;;;;;;7.56;100.00;100941.22;4963617;28;20054;-85
2022/12/21 04:49:50;;;;;;;40.10;15.80;;;;;;;7.60;100.00;100930.97;4961142;28;20154;-85
2022/12/21 04:52:15;;;;;;;40.60;16.77;;;;;;;7.63;100.00;100927.47;4963304;28;20054;-85
2022/12/21 04:54:40;;;;;;;46.10;17.48;;;;;;;7.60;100.00;100928.19;4965237;28;20522;-85
2022/12/21 04:57:06;;;;;;;43.72;18.27;;;;;;;7.61;100.00;100932.59;4964685;28;20034;-85
2022/12/21 04:59:31;;;;;;;43.80;15.38;;;;;;;7.63;100.00;100933.03;4960583;28;20689;-85
2022/12/21 05:01:57;;;;;;;52.33;19.83;;;;;;;7.47;100.00;100931.03;4980333;28;20062;-86
2022/12/21 05:04:22;;;;;;;43.15;17.77;;;;;;;7.55;100.00;100929.28;4982961;28;20113;-85
2022/12/21 05:06:47;;;;;;;49.60;21.67;;;;;;;7.50;100.00;100944.25;4985722;28;20072;-84
2022/12/21 05:09:13;;;;;;;45.65;19.33;;;;;;;7.60;100.00;100936.56;4999608;28;20028;-85
2022/12/21 05:11:39;;;;;;;43.47;17.35;;;;;;;7.57;100.00;100935.28;4977834;28;20504;-85
2022/12/21 05:14:04;;;;;;;53.13;20.50;;;;;;;7.50;100.00;100935.88;4992890;28;21308;-85
2022/12/21 05:16:29;;;;;;;41.33;16.52;;;;;;;7.54;100.00;100941.56;4979402;28;20058;-85
2022/12/21 05:18:56;;;;;;;43.22;17.05;;;;;;;7.57;100.00;100934.47;4981493;28;20034;-85
2022/12/21 05:21:21;;;;;;;58.08;21.30;;;;;;;7.48;100.00;100937.41;4997354;28;20597;-85
2022/12/21 05:23:47;;;;;;;40.25;17.05;;;;;;;7.45;100.00;100936.16;4977699;28;20131;-84
2022/12/21 05:26:12;;;;;;;48.10;17.67;;;;;;;7.47;100.00;100935.81;4980149;28;20038;-85
2022/12/21 05:28:38;;;;;;;40.55;17.00;;;;;;;7.50;100.00;100935.09;4981133;28;20026;-85
2022/12/21 05:31:05;;;;;;;57.20;21.98;;;;;;;7.48;100.00;100927.09;4978962;28;20481;-85
2022/12/21 05:33:30;;;;;;;39.20;18.08;;;;;;;7.55;100.00;100932.06;4981112;28;20034;-84
2022/12/21 05:35:56;;;;;;;42.90;16.77;;;;;;;7.54;100.00;100919.28;4975526;28;20026;-85
2022/12/21 05:38:21;;;;;;;41.05;18.10;;;;;;;7.54;100.00;100922.06;4975190;28;20088;-85
2022/12/21 05:40:48;;;;;;;56.25;21.80;;;;;;;7.48;100.00;100915.97;4973655;28;20030;-85
2022/12/21 05:43:13;;;;;;;56.08;21.65;;;;;;;7.52;100.00;100916.84;4990637;28;20038;-85
2022/12/21 05:45:39;;;;;;;47.42;19.25;;;;;;;7.48;100.00;100921.53;4990830;28;20018;-85
2022/12/21 05:48:04;;;;;;;44.90;19.75;;;;;;;7.41;100.00;100921.31;4979118;28;20105;-84
2022/12/21 05:50:30;;;;;;;44.85;17.90;;;;;;;7.36;100.00;100901.25;4982870;28;20739;-85
2022/12/21 05:52:55;;;;;;;61.85;24.30;;;;;;;7.45;100.00;100922.22;4979965;28;20496;-85
2022/12/21 05:55:20;;;;;;;60.97;21.67;;;;;;;7.36;100.00;100912.41;4983593;28;20476;-85
2022/12/21 05:57:46;;;;;;;57.95;21.75;;;;;;;7.43;100.00;100919.00;4978509;28;20046;-85
2022/12/21 06:00:12;;;;;;;40.95;17.80;;;;;;;7.45;100.00;100916.66;4986174;28;20042;-85
2022/12/21 06:02:37;;;;;;;43.03;16.25;;;;;;;7.51;100.00;100925.56;4974275;28;20449;-85
2022/12/21 06:05:03;;;;;;;46.65;18.33;;;;;;;7.52;100.00;100925.19;4978693;28;21649;-85
2022/12/21 06:07:29;;;;;;;42.08;17.65;;;;;;;7.54;100.00;100924.84;4982153;28;20363;-85
2022/12/21 06:09:54;;;;;;;46.20;20.85;;;;;;;7.45;100.00;100911.09;4981164;28;20062;-85
2022/12/21 06:12:20;;;;;;;41.92;18.83;;;;;;;7.45;100.00;100905.53;5002404;28;20030;-84
2022/12/21 06:14:45;;;;;;;47.10;20.00;;;;;;;7.50;100.00;100910.81;4975013;28;20483;-85
2022/12/21 06:17:10;;;;;;;40.47;17.20;;;;;;;7.39;100.00;100900.56;4996570;28;20390;-85
2022/12/21 06:19:36;;;;;;;44.95;18.90;;;;;;;7.51;100.00;100920.81;4998309;28;20041;-85
2022/12/21 06:22:01;;;;;;;37.03;16.90;;;;;;;7.48;100.00;100915.97;4984287;28;20065;-85
2022/12/21 06:24:26;;;;;;;44.35;19.83;;;;;;;7.42;100.00;100908.19;4980927;28;20100;-85
2022/12/21 06:26:52;;;;;;;46.88;18.75;;;;;;;7.45;100.00;100916.66;4983341;28;20121;-85
2022/12/21 06:29:17;;;;;;;40.88;19.30;;;;;;;7.39;100.00;100909.72;4996780;28;20046;-85
2022/12/21 06:31:42;;;;;;;42.42;19.85;;;;;;;7.39;100.00;100912.50;4998774;28;20169;-85
2022/12/21 06:34:12;;;;;;;52.60;23.80;;;;;;;7.34;100.00;100915.56;4983788;28;20045;-85
2022/12/21 06:36:37;;;;;;;53.42;20.52;;;;;;;7.29;100.00;100918.59;4980959;28;20441;-84
2022/12/21 06:39:02;;;;;;;55.03;20.98;;;;;;;7.31;100.00;100921.81;4984535;28;20061;-85
2022/12/21 06:41:28;;;;;;;57.08;20.20;;;;;;;7.34;100.00;100912.78;4996247;28;20120;-85
2022/12/21 06:43:53;;;;;;;47.55;19.02;;;;;;;7.32;100.00;100917.88;4982483;28;20042;-85
2022/12/21 06:46:19;;;;;;;48.83;20.58;;;;;;;7.33;100.00;100922.28;4980123;28;20494;-84
2022/12/21 06:48:45;;;;;;;69.57;26.60;;;;;;;7.27;100.00;100918.13;4985880;28;20018;-85
2022/12/21 06:51:14;;;;;;;51.85;22.48;;;;;;;7.32;100.00;100915.09;4982633;28;20100;-85
2022/12/21 06:53:42;;;;;;;54.63;21.90;;;;;;;7.36;100.00;100923.53;5001599;28;21032;-85
2022/12/21 06:56:29;;;;;;;47.15;21.90;;;;;;;7.31;100.00;100928.19;4985696;28;20081;-85
2022/12/21 06:58:55;;;;;;;52.58;21.30;;;;;;;7.19;100.00;100922.69;4983116;28;20047;-85
2022/12/21 07:01:25;;;;;;;51.83;21.80;;;;;;;7.34;100.00;100929.50;4982034;28;20104;-85
2022/12/21 07:03:51;;;;;;;54.13;22.95;;;;;;;7.25;100.00;100912.09;4979822;28;20050;-85
2022/12/21 07:06:18;;;;;;;50.63;23.13;;;;;;;7.36;100.00;100935.50;4984682;28;20092;-85
2022/12/21 07:08:44;;;;;;;54.85;21.70;;;;;;;7.28;100.00;100922.53;4995343;28;20080;-84
2022/12/21 07:11:12;;;;;;;51.17;21.15;;;;;;;7.32;100.00;100932.63;4977885;28;20349;-85
2022/12/21 07:13:40;;;;;;;52.83;22.92;;;;;;;7.54;100.00;100939.59;4976623;28;20034;-80
2022/12/21 07:16:07;;;;;;;60.55;25.17;;;;;;;7.23;100.00;100942.28;4993550;28;20030;-79
2022/12/21 07:18:34;;;;;;;73.10;28.23;;;;;;;7.33;100.00;100947.34;4986627;28;20030;-79
2022/12/21 07:21:02;;;;;;;68.10;27.92;;;;;;;7.44;100.00;100937.34;4985453;28;20487;-84
2022/12/21 07:23:29;;;;;;;74.30;29.98;;;;;;;7.63;100.00;100933.88;4984125;28;20030;-82
2022/12/21 07:25:54;;;;;;;67.75;28.20;;;;;;;7.31;100.00;100932.97;4980721;28;20034;-83
2022/12/21 07:28:21;;;;;;;74.03;26.90;;;;;;;7.29;100.00;100941.69;4983985;28;20022;-82
2022/12/21 07:30:48;;;;;;;66.05;25.95;;;;;;;7.30;100.00;100942.50;4981443;28;20034;-82
2022/12/21 07:33:18;;;;;;;70.43;28.00;;;;;;;7.23;100.00;100931.97;4981858;28;20030;-83
2022/12/21 07:35:43;;;;;;;60.75;25.13;;;;;;;7.22;100.00;100940.66;4985404;28;20026;-83
2022/12/21 07:38:09;;;;;;;60.95;25.60;;;;;;;7.13;100.00;100944.41;4982959;28;20026;-82
2022/12/21 07:40:34;;;;;;;69.35;26.92;;;;;;;7.10;100.00;100944.28;4986912;28;20129;-82
2022/12/21 07:42:59;;;;;;;61.00;24.17;;;;;;;7.15;100.00;100937.66;4979524;28;20068;-82
2022/12/21 07:45:25;;;;;;;71.30;28.98;;;;;;;7.15;100.00;100935.72;4981958;28;20062;-82
2022/12/21 07:47:50;;;;;;;71.45;28.65;;;;;;;7.09;100.00;100937.91;4985442;28;20055;-82
2022/12/21 07:50:16;;;;;;;79.47;29.52;;;;;;;6.90;100.00;100935.78;4987820;28;20022;-81
2022/12/21 07:52:41;;;;;;;74.47;28.60;;;;;;;6.93;100.00;100939.81;5003140;28;20114;-82
2022/12/21 07:55:07;;;;;;;74.13;28.77;;;;;;;6.87;100.00;100942.06;4988779;28;20038;-82
2022/12/21 07:57:32;;;;;;;71.60;28.88;;;;;;;6.89;100.00;100950.03;4985243;28;20116;-82
2022/12/21 07:59:58;;;;;;;70.90;27.77;;;;;;;6.91;100.00;100959.66;4999942;28;20034;-82
2022/12/21 08:02:23;;;;;;;85.40;30.98;;;;;;;6.89;100.00;100955.59;4984265;28;20050;-82
2022/12/21 08:04:49;;;;;;;77.18;31.17;;;;;;;6.93;100.00;100956.50;4980890;28;21593;-82
2022/12/21 08:07:14;;;;;;;78.95;30.48;;;;;;;6.93;100.00;100956.50;4982868;28;20081;-82
2022/12/21 08:09:39;;;;;;;82.13;30.17;;;;;;;6.90;100.00;100962.78;4988337;28;20229;-82
2022/12/21 08:12:05;;;;;;;95.40;30.73;;;;;;;6.91;100.00;100956.88;4981385;28;20030;-82
2022/12/21 08:14:30;;;;;;;85.47;30.35;;;;;;;6.94;100.00;100972.06;4982276;28;20036;-82
2022/12/21 08:16:55;;;;;;;89.30;32.13;;;;;;;7.21;100.00;100978.00;4982303;28;20117;-81
2022/12/21 08:19:21;;;;;;;78.38;30.30;;;;;;;7.04;100.00;100979.09;4980800;28;20022;-81
2022/12/21 08:21:47;;;;;;;82.95;30.67;;;;;;;6.92;100.00;100979.94;4987105;28;20089;-81
2022/12/21 08:24:12;;;;;;;85.95;32.45;;;;;;;6.97;100.00;100982.47;5003194;28;20033;-81
2022/12/21 08:26:37;;;;;;;85.32;29.98;;;;;;;6.95;100.00;100979.22;5001705;28;20026;-82
2022/12/21 08:29:05;;;;;;;84.45;30.27;;;;;;;7.01;100.00;100974.25;4996183;28;20034;-81
2022/12/21 08:31:30;;;;;;;88.82;30.67;;;;;;;6.99;100.00;100966.25;4983148;28;20026;-82
2022/12/21 08:33:56;;;;;;;86.53;32.60;;;;;;;7.00;100.00;100984.56;4987994;28;20478;-82
2022/12/21 08:36:23;;;;;;;88.10;31.52;;;;;;;7.01;100.00;100963.13;4986414;28;20127;-81
2022/12/21 08:38:49;;;;;;;99.03;33.40;;;;;;;7.02;100.00;100971.13;4990694;28;20022;-81
2022/12/21 08:41:15;;;;;;;83.60;29.95;;;;;;;7.07;100.00;100970.06;4988576;28;20034;-82
2022/12/21 08:43:40;;;;;;;84.75;29.50;;;;;;;7.18;100.00;100973.97;4988296;28;20061;-81
2022/12/21 08:46:08;;;;;;;92.60;27.27;;;;;;;7.15;100.00;100963.53;4985902;28;20112;-81
2022/12/21 08:48:34;;;;;;;94.18;34.20;;;;;;;7.18;100.00;100962.03;4984199;28;20018;-81
2022/12/21 08:51:03;;;;;;;83.07;28.67;;;;;;;7.27;100.00;100971.03;4987347;28;20112;-82
2022/12/21 08:53:28;;;;;;;89.43;29.50;;;;;;;7.28;100.00;100969.88;4985104;28;20088;-82
2022/12/21 08:55:54;;;;;;;93.57;33.42;;;;;;;7.22;100.00;100968.50;4995491;28;20078;-82
2022/12/21 08:58:22;;;;;;;99.85;34.85;;;;;;;7.22;100.00;100965.72;4982792;28;20061;-81
2022/12/21 09:00:50;;;;;;;95.60;32.25;;;;;;;7.30;100.00;100964.78;4984872;28;20136;-82
2022/12/21 09:03:16;;;;;;;86.70;28.58;;;;;;;7.33;100.00;100958.47;4986563;28;20050;-82
2022/12/21 09:05:41;;;;;;;94.00;32.63;;;;;;;7.36;100.00;100952.22;4985017;28;20529;-82
2022/12/21 09:08:06;;;;;;;110.00;34.40;;;;;;;7.42;100.00;100966.69;4983253;28;20026;-82
2022/12/21 09:10:33;;;;;;;97.55;32.15;;;;;;;7.42;100.00;100964.72;4985128;28;20033;-82
2022/12/21 09:12:58;;;;;;;93.55;28.98;;;;;;;7.38;100.00;100949.06;4998192;28;20030;-82
2022/12/21 09:15:24;;;;;;;102.93;32.28;;;;;;;7.43;100.00;100957.97;4993818;28;20019;-81
2022/12/21 09:17:50;;;;;;;110.90;35.90;;;;;;;7.43;100.00;100954.38;4981965;28;20035;-81
2022/12/21 09:20:15;;;;;;;97.50;32.97;;;;;;;7.39;100.00;100954.28;4984909;28;20425;-81
2022/12/21 09:22:41;;;;;;;90.28;29.58;;;;;;;7.41;100.00;100949.16;4987363;28;20077;-81
2022/12/21 09:25:07;;;;;;;100.22;33.63;;;;;;;7.42;100.00;100956.38;4986348;28;20041;-81
2022/12/21 09:27:33;;;;;;;101.35;32.67;;;;;;;7.41;100.00;100951.16;5003175;28;20121;-81
2022/12/21 09:29:58;;;;;;;92.10;29.00;;;;;;;7.39;100.00;100951.50;4999553;28;20435;-81
2022/12/21 09:32:24;;;;;;;100.38;33.85;;;;;;;7.41;100.00;100962.28;4983116;28;20026;-81
2022/12/21 09:34:50;;;;;;;99.63;33.05;;;;;;;7.40;100.00;100964.28;4985175;28;20026;-81
2022/12/21 09:37:15;;;;;;;105.72;31.50;;;;;;;7.48;100.00;100970.84;4978772;28;20106;-80
2022/12/21 09:39:41;;;;;;;91.57;30.05;;;;;;;7.43;100.00;100960.75;4976412;28;20397;-81
2022/12/21 09:42:52;;;;;;;92.05;30.75;;;;;;;7.42;100.00;100970.28;4989818;28;20029;-80
2022/12/21 09:45:32;;;;;;;96.43;32.90;;;;;;;7.53;100.00;100971.41;4997967;28;20031;-80
2022/12/21 09:48:04;;;;;;;92.03;29.25;;;;;;;7.43;100.00;100962.75;4990016;28;20057;-80
2022/12/21 09:50:44;;;;;;;98.40;30.85;;;;;;;7.51;100.00;100959.81;4984241;28;20054;-80
2022/12/21 09:53:17;;;;;;;105.57;32.70;;;;;;;7.41;100.00;100954.75;4982930;28;20393;-80
2022/12/21 09:55:46;;;;;;;107.32;35.53;;;;;;;7.52;100.00;100955.84;4979634;28;20073;-81
2022/12/21 09:58:21;;;;;;;115.20;34.72;;;;;;;7.42;100.00;100949.97;4977557;28;20141;-80
2022/12/21 10:00:55;;;;;;;108.05;33.22;;;;;;;7.46;100.00;100945.31;4979732;28;20506;-81
2022/12/21 10:04:01;;;;;;;103.25;34.38;;;;;;;7.44;100.00;100942.91;4982440;28;20101;-81
2022/12/21 10:06:33;;;;;;;89.80;32.42;;;;;;;7.42;100.00;100945.22;4976087;28;20034;-81
2022/12/21 10:09:35;;;;;;;95.90;33.22;;;;;;;7.41;100.00;100954.75;4984526;28;20080;-81
2022/12/21 10:12:14;;;;;;;99.28;29.92;;;;;;;7.33;100.00;100947.34;4982513;28;20038;-80
2022/12/21 10:14:55;;;;;;;106.13;36.45;;;;;;;7.42;100.00;100956.38;4996861;28;20034;-80
2022/12/21 10:17:21;;;;;;;97.22;34.10;;;;;;;7.38;100.00;100955.47;4992828;28;20069;-81
2022/12/21 10:19:54;;;;;;;102.80;32.22;;;;;;;7.36;100.00;100960.56;4992972;28;20057;-81
2022/12/21 10:22:25;;;;;;;94.28;32.80;;;;;;;7.34;100.00;100957.34;4984278;28;20034;-81
2022/12/21 10:24:57;;;;;;;108.63;35.75;;;;;;;7.43;100.00;100946.03;4978313;28;20042;-80
2022/12/21 10:27:41;;;;;;;93.97;33.40;;;;;;;7.45;100.00;100955.66;4984310;28;20037;-81
2022/12/21 10:30:15;;;;;;;88.28;31.75;;;;;;;7.41;100.00;100943.59;4988021;28;20026;-80
2022/12/21 10:32:44;;;;;;;111.45;36.92;;;;;;;7.47;100.00;100936.59;4982430;28;20039;-81
2022/12/21 10:35:33;;;;;;;98.18;36.75;;;;;;;7.56;100.00;100938.44;4987990;28;20026;-80
2022/12/21 10:37:59;;;;;;;88.47;33.15;;;;;;;7.48;100.00;100921.53;5003657;28;20022;-80
2022/12/21 10:40:29;;;;;;;98.57;35.42;;;;;;;7.51;100.00;100920.81;4980438;28;20089;-81
2022/12/21 10:42:55;;;;;;;107.18;35.65;;;;;;;7.58;100.00;100908.25;4982854;28;20057;-81
2022/12/21 10:45:23;;;;;;;97.07;31.50;;;;;;;7.52;100.00;100919.63;4992402;28;20030;-80
2022/12/21 10:47:49;;;;;;;80.20;29.45;;;;;;;7.56;100.00;100910.56;4991159;28;20018;-80
2022/12/21 10:50:16;;;;;;;97.50;34.28;;;;;;;7.53;100.00;100907.34;5004097;28;20129;-80
2022/12/21 10:52:45;;;;;;;102.05;32.80;;;;;;;7.61;100.00;100908.34;4991338;28;20031;-81
2022/12/21 10:55:19;;;;;;;88.03;29.90;;;;;;;7.65;100.00;100908.41;4990009;28;20118;-80
2022/12/21 10:58:00;;;;;;;81.50;29.30;;;;;;;7.73;100.00;100904.66;5008341;28;20142;-80
2022/12/21 11:00:29;;;;;;;83.63;27.60;;;;;;;7.70;100.00;100905.38;4983057;28;20027;-80
2022/12/21 11:03:14;;;;;;;75.82;26.23;;;;;;;7.69;100.00;100904.56;4986271;28;20258;-80
2022/12/21 11:05:41;;;;;;;84.57;28.75;;;;;;;7.74;100.00;100906.28;4990022;28;20155;-80
2022/12/21 11:08:12;;;;;;;67.70;27.52;;;;;;;7.68;100.00;100905.75;4984680;28;20033;-80
2022/12/21 11:10:40;;;;;;;68.55;28.63;;;;;;;7.70;100.00;100889.47;4986266;28;20034;-80
2022/12/21 11:13:06;;;;;;;76.97;27.08;;;;;;;7.76;100.00;100903.13;4982026;28;20030;-81
2022/12/21 11:15:32;;;;;;;70.95;23.92;;;;;;;7.79;100.00;100892.09;4986181;28;20491;-81
2022/12/21 11:17:58;;;;;;;67.90;26.38;;;;;;;7.77;100.00;100893.63;4990240;28;20034;-81
2022/12/21 11:20:24;;;;;;;77.93;24.92;;;;;;;7.83;100.00;100893.00;4984247;28;20484;-81
2022/12/21 11:22:56;;;;;;;73.72;27.42;;;;;;;7.84;100.00;100902.16;4998136;28;20125;-80
2022/12/21 11:25:26;;;;;;;70.63;23.52;;;;;;;7.85;100.00;100899.00;4982642;28;20025;-81
2022/12/21 11:27:58;;;;;;;71.32;25.88;;;;;;;7.80;100.00;100887.31;4991924;28;20035;-80
2022/12/21 11:30:26;;;;;;;59.88;22.77;;;;;;;7.84;100.00;100891.84;4979568;28;20112;-81
2022/12/21 11:32:54;;;;;;;63.55;26.55;;;;;;;7.93;100.00;100892.47;4989325;28;20070;-81
2022/12/21 11:35:27;;;;;;;66.95;22.63;;;;;;;7.86;100.00;100886.72;5003131;28;20239;-80